createdAt,value
2018-10-21T00:00:07.588Z,4.29
2018-10-21T00:01:07.602Z,4.31
2018-10-21T00:02:07.571Z,4.26
2018-10-21T00:03:07.619Z,4.17
2018-10-21T00:04:07.545Z,4.18
2018-10-21T00:05:07.535Z,4.20
2018-10-21T00:06:07.551Z,4.28
2018-10-21T00:07:07.521Z,4.25
2018-10-21T00:08:07.520Z,4.17
2018-10-21T00:09:07.548Z,4.20
2018-10-21T00:10:07.510Z,4.17
2018-10-21T00:11:07.489Z,4.18
2018-10-21T00:12:07.467Z,4.20
2018-10-21T00:13:07.449Z,4.14
2018-10-21T00:14:07.437Z,4.14
2018-10-21T00:15:07.501Z,4.02
2018-10-21T00:16:07.437Z,4.20
2018-10-21T00:17:07.404Z,4.20
2018-10-21T00:18:07.404Z,4.24
2018-10-21T00:19:07.427Z,4.13
2018-10-21T00:20:07.393Z,4.18
2018-10-21T00:21:07.437Z,4.21
2018-10-21T00:22:07.351Z,4.20
2018-10-21T00:23:07.340Z,4.24
2018-10-21T00:24:07.335Z,4.13
2018-10-21T00:25:07.319Z,4.10
2018-10-21T00:26:07.336Z,4.17
2018-10-21T00:27:07.376Z,4.17
2018-10-21T00:28:07.292Z,4.20
2018-10-21T00:29:07.278Z,4.17
2018-10-21T00:30:07.269Z,4.25
2018-10-21T00:31:07.280Z,4.21
2018-10-21T00:32:07.243Z,4.16
2018-10-21T00:33:07.277Z,4.16
2018-10-21T00:34:07.227Z,4.08
2018-10-21T00:35:07.208Z,4.07
2018-10-21T00:36:07.227Z,4.02
2018-10-21T00:37:07.190Z,4.00
2018-10-21T00:38:07.176Z,3.98
2018-10-21T00:39:07.240Z,3.95
2018-10-21T00:40:07.155Z,3.98
2018-10-21T00:41:07.145Z,3.92
2018-10-21T00:42:07.161Z,4.02
2018-10-21T00:43:07.149Z,3.96
2018-10-21T00:44:07.114Z,3.92
2018-10-21T00:45:07.160Z,3.86
2018-10-21T00:46:07.092Z,3.88
2018-10-21T00:47:07.091Z,3.90
2018-10-21T00:48:07.096Z,3.92
2018-10-21T00:49:07.062Z,3.88
2018-10-21T00:50:07.059Z,3.80
2018-10-21T00:51:07.071Z,3.78
2018-10-21T00:52:07.028Z,3.84
2018-10-21T00:53:07.054Z,3.92
2018-10-21T00:54:07.004Z,3.93
2018-10-21T00:55:06.997Z,3.92
2018-10-21T00:56:07.004Z,3.93
2018-10-21T00:57:06.993Z,3.90
2018-10-21T00:58:06.992Z,3.86
2018-10-21T00:59:06.954Z,3.84
2018-10-21T01:00:06.942Z,3.89
2018-10-21T01:01:06.929Z,3.88
2018-10-21T01:02:06.924Z,3.89
2018-10-21T01:03:07.030Z,3.86
2018-10-21T01:04:06.925Z,3.80
2018-10-21T01:05:06.887Z,3.82
2018-10-21T01:06:06.942Z,3.84
2018-10-21T01:07:06.864Z,3.82
2018-10-21T01:08:06.856Z,3.82
2018-10-21T01:09:06.951Z,3.82
2018-10-21T01:10:06.843Z,3.80
2018-10-21T01:11:06.833Z,3.72
2018-10-21T01:12:06.813Z,3.72
2018-10-21T01:13:06.802Z,3.75
2018-10-21T01:14:06.804Z,3.77
2018-10-21T01:15:06.827Z,3.72
2018-10-21T01:16:06.769Z,3.71
2018-10-21T01:17:06.759Z,3.75
2018-10-21T01:18:06.751Z,3.72
2018-10-21T01:19:06.752Z,3.74
2018-10-21T01:20:06.764Z,3.70
2018-10-21T01:21:06.758Z,3.74
2018-10-21T01:22:06.701Z,3.77
2018-10-21T01:23:06.699Z,3.71
2018-10-21T01:24:06.683Z,3.74
2018-10-21T01:25:06.698Z,3.70
2018-10-21T01:26:06.665Z,3.70
2018-10-21T01:27:06.737Z,3.72
2018-10-21T01:28:06.648Z,3.84
2018-10-21T01:29:06.651Z,3.86
2018-10-21T01:30:06.647Z,3.86
2018-10-21T01:31:06.609Z,3.81
2018-10-21T01:32:06.601Z,3.75
2018-10-21T01:33:06.715Z,3.71
2018-10-21T01:34:06.578Z,3.72
2018-10-21T01:35:06.563Z,3.67
2018-10-21T01:36:06.593Z,3.67
2018-10-21T01:37:06.665Z,3.72
2018-10-21T01:38:06.576Z,3.63
2018-10-21T01:39:06.576Z,3.60
2018-10-21T01:40:06.516Z,3.50
2018-10-21T01:41:06.530Z,3.56
2018-10-21T01:42:06.495Z,3.53
2018-10-21T01:43:06.487Z,3.54
2018-10-21T01:44:06.480Z,3.56
2018-10-21T01:45:06.508Z,3.57
2018-10-21T01:46:06.476Z,3.52
2018-10-21T01:47:06.434Z,3.59
2018-10-21T01:48:06.430Z,3.57
2018-10-21T01:49:06.417Z,3.56
2018-10-21T01:50:06.408Z,3.54
2018-10-21T01:51:06.469Z,3.50
2018-10-21T01:52:06.391Z,3.46
2018-10-21T01:53:06.384Z,3.53
2018-10-21T01:54:06.375Z,3.50
2018-10-21T01:55:06.352Z,3.53
2018-10-21T01:56:06.376Z,3.49
2018-10-21T01:57:06.384Z,3.44
2018-10-21T01:58:06.325Z,3.46
2018-10-21T01:59:06.318Z,3.49
2018-10-21T02:00:06.302Z,3.34
2018-10-21T02:01:06.290Z,3.31
2018-10-21T02:02:06.312Z,3.35
2018-10-21T02:03:06.270Z,3.33
2018-10-21T02:04:06.257Z,3.34
2018-10-21T02:05:06.244Z,3.50
2018-10-21T02:06:06.238Z,3.45
2018-10-21T02:07:06.306Z,3.53
2018-10-21T02:08:06.223Z,3.52
2018-10-21T02:09:06.236Z,3.62
2018-10-21T02:10:06.199Z,3.64
2018-10-21T02:11:06.187Z,3.54
2018-10-21T02:12:06.171Z,3.64
2018-10-21T02:13:06.248Z,3.60
2018-10-21T02:14:06.155Z,3.63
2018-10-21T02:15:06.181Z,3.62
2018-10-21T02:16:06.162Z,3.56
2018-10-21T02:17:06.116Z,3.50
2018-10-21T02:18:06.139Z,3.60
2018-10-21T02:19:06.092Z,3.59
2018-10-21T02:20:06.089Z,3.53
2018-10-21T02:21:06.158Z,3.44
2018-10-21T02:22:06.063Z,3.60
2018-10-21T02:23:06.097Z,3.59
2018-10-21T02:24:06.040Z,3.63
2018-10-21T02:25:06.050Z,3.53
2018-10-21T02:26:06.074Z,3.54
2018-10-21T02:27:06.021Z,3.60
2018-10-21T02:28:06.013Z,3.60
2018-10-21T02:29:06.014Z,3.62
2018-10-21T02:30:05.986Z,3.60
2018-10-21T02:31:05.965Z,3.63
2018-10-21T02:32:05.959Z,3.63
2018-10-21T02:33:06.002Z,3.60
2018-10-21T02:34:05.971Z,3.60
2018-10-21T02:35:05.934Z,3.63
2018-10-21T02:36:05.942Z,3.49
2018-10-21T02:37:05.906Z,3.46
2018-10-21T02:38:05.913Z,3.50
2018-10-21T02:39:05.970Z,3.54
2018-10-21T02:40:05.874Z,3.53
2018-10-21T02:41:05.862Z,3.54
2018-10-21T02:42:05.857Z,3.52
2018-10-21T02:43:05.846Z,3.62
2018-10-21T02:44:05.867Z,3.67
2018-10-21T02:45:05.918Z,3.59
2018-10-21T02:46:05.812Z,3.67
2018-10-21T02:47:05.799Z,3.60
2018-10-21T02:48:05.828Z,3.70
2018-10-21T02:49:05.825Z,3.60
2018-10-21T02:50:05.768Z,3.60
2018-10-21T02:51:05.768Z,3.54
2018-10-21T02:52:05.746Z,3.56
2018-10-21T02:53:05.753Z,3.57
2018-10-21T02:54:05.753Z,3.63
2018-10-21T02:55:05.719Z,3.63
2018-10-21T02:56:05.702Z,3.63
2018-10-21T02:57:05.791Z,3.63
2018-10-21T02:58:05.676Z,3.71
2018-10-21T02:59:05.668Z,3.68
2018-10-21T03:00:05.686Z,3.77
2018-10-21T03:01:05.662Z,3.86
2018-10-21T03:02:05.643Z,3.95
2018-10-21T03:03:05.657Z,3.98
2018-10-21T03:04:05.636Z,3.92
2018-10-21T03:05:05.615Z,3.95
2018-10-21T03:06:05.620Z,3.98
2018-10-21T03:07:05.585Z,3.98
2018-10-21T03:08:05.639Z,4.06
2018-10-21T03:09:05.619Z,3.98
2018-10-21T03:10:05.560Z,3.95
2018-10-21T03:11:05.575Z,3.95
2018-10-21T03:12:05.582Z,3.81
2018-10-21T03:13:05.523Z,3.82
2018-10-21T03:14:05.513Z,3.88
2018-10-21T03:15:05.541Z,3.77
2018-10-21T03:16:05.499Z,3.78
2018-10-21T03:17:05.498Z,3.74
2018-10-21T03:18:05.511Z,3.77
2018-10-21T03:19:05.456Z,3.75
2018-10-21T03:20:05.449Z,3.71
2018-10-21T03:21:05.500Z,3.71
2018-10-21T03:22:05.443Z,3.70
2018-10-21T03:23:05.418Z,3.64
2018-10-21T03:24:05.430Z,3.68
2018-10-21T03:25:05.393Z,3.70
2018-10-21T03:26:05.385Z,3.63
2018-10-21T03:27:05.444Z,3.67
2018-10-21T03:28:05.356Z,3.71
2018-10-21T03:29:05.348Z,3.77
2018-10-21T03:30:05.343Z,3.63
2018-10-21T03:31:05.324Z,3.62
2018-10-21T03:32:05.354Z,3.59
2018-10-21T03:33:05.456Z,3.50
2018-10-21T03:34:05.421Z,3.57
2018-10-21T03:35:05.289Z,3.56
2018-10-21T03:36:05.273Z,3.53
2018-10-21T03:37:05.311Z,3.49
2018-10-21T03:38:05.249Z,3.46
2018-10-21T03:39:05.290Z,3.54
2018-10-21T03:40:05.246Z,3.54
2018-10-21T03:41:05.241Z,3.49
2018-10-21T03:42:05.207Z,3.52
2018-10-21T03:43:05.223Z,3.59
2018-10-21T03:44:05.206Z,3.59
2018-10-21T03:45:05.176Z,3.75
2018-10-21T03:46:05.244Z,3.78
2018-10-21T03:47:05.217Z,3.89
2018-10-21T03:48:05.153Z,3.99
2018-10-21T03:49:05.143Z,3.96
2018-10-21T03:50:05.150Z,4.04
2018-10-21T03:51:05.113Z,4.13
2018-10-21T03:52:05.137Z,4.13
2018-10-21T03:53:05.091Z,4.21
2018-10-21T03:54:05.086Z,4.18
2018-10-21T03:55:05.096Z,4.16
2018-10-21T03:56:05.057Z,4.26
2018-10-21T03:57:05.121Z,4.29
2018-10-21T03:58:05.090Z,4.24
2018-10-21T03:59:05.025Z,4.28
2018-10-21T04:00:05.028Z,4.31
2018-10-21T04:01:05.004Z,4.38
2018-10-21T04:02:05.025Z,4.46
2018-10-21T04:03:04.980Z,4.46
2018-10-21T04:04:05.045Z,4.38
2018-10-21T04:05:05.002Z,4.36
2018-10-21T04:06:04.954Z,4.47
2018-10-21T04:07:04.974Z,4.39
2018-10-21T04:08:04.955Z,4.53
2018-10-21T04:09:04.913Z,4.46
2018-10-21T04:10:04.998Z,4.43
2018-10-21T04:11:04.905Z,4.43
2018-10-21T04:12:04.914Z,4.53
2018-10-21T04:13:04.878Z,4.49
2018-10-21T04:14:04.911Z,4.46
2018-10-21T04:15:04.849Z,4.54
2018-10-21T04:16:04.895Z,4.61
2018-10-21T04:17:04.867Z,4.61
2018-10-21T04:18:04.833Z,4.51
2018-10-21T04:19:04.809Z,4.50
2018-10-21T04:20:04.853Z,4.56
2018-10-21T04:21:04.810Z,4.51
2018-10-21T04:22:04.796Z,4.61
2018-10-21T04:23:04.789Z,4.56
2018-10-21T04:24:04.757Z,4.57
2018-10-21T04:25:04.761Z,4.61
2018-10-21T04:26:04.736Z,4.62
2018-10-21T04:27:04.722Z,4.61
2018-10-21T04:28:04.810Z,4.62
2018-10-21T04:29:04.709Z,4.53
2018-10-21T04:30:04.695Z,4.51
2018-10-21T04:31:04.685Z,4.51
2018-10-21T04:32:04.669Z,4.59
2018-10-21T04:33:04.671Z,4.56
2018-10-21T04:34:04.681Z,4.61
2018-10-21T04:35:04.638Z,4.59
2018-10-21T04:36:04.671Z,4.61
2018-10-21T04:37:04.614Z,4.68
2018-10-21T04:38:04.612Z,4.64
2018-10-21T04:39:04.616Z,4.61
2018-10-21T04:40:04.617Z,4.64
2018-10-21T04:41:04.592Z,4.61
2018-10-21T04:42:04.623Z,4.61
2018-10-21T04:43:04.560Z,4.61
2018-10-21T04:44:04.575Z,4.57
2018-10-21T04:45:04.533Z,4.62
2018-10-21T04:46:04.575Z,4.67
2018-10-21T04:47:04.714Z,4.61
2018-10-21T04:48:04.499Z,4.57
2018-10-21T04:49:04.524Z,4.47
2018-10-21T04:50:04.484Z,4.49
2018-10-21T04:51:04.488Z,4.47
2018-10-21T04:52:04.483Z,4.53
2018-10-21T04:53:04.449Z,4.43
2018-10-21T04:54:04.489Z,4.47
2018-10-21T04:55:04.419Z,4.38
2018-10-21T04:56:04.427Z,4.43
2018-10-21T04:57:04.407Z,4.49
2018-10-21T04:58:04.441Z,4.42
2018-10-21T04:59:04.413Z,4.49
2018-10-21T05:00:04.374Z,4.46
2018-10-21T05:01:04.374Z,4.44
2018-10-21T05:02:04.357Z,4.51
2018-10-21T05:03:04.343Z,4.47
2018-10-21T05:04:04.658Z,4.44
2018-10-21T05:05:04.314Z,4.42
2018-10-21T05:06:04.339Z,4.44
2018-10-21T05:07:04.287Z,4.46
2018-10-21T05:08:04.278Z,4.50
2018-10-21T05:09:04.324Z,4.53
2018-10-21T05:10:04.353Z,4.51
2018-10-21T05:11:04.249Z,4.50
2018-10-21T05:12:04.246Z,4.39
2018-10-21T05:13:04.232Z,4.53
2018-10-21T05:14:04.256Z,4.57
2018-10-21T05:15:04.220Z,4.51
2018-10-21T05:16:04.264Z,4.47
2018-10-21T05:17:04.188Z,4.44
2018-10-21T05:18:04.189Z,4.50
2018-10-21T05:19:04.164Z,4.50
2018-10-21T05:20:04.191Z,4.50
2018-10-21T05:21:04.146Z,4.54
2018-10-21T05:22:04.189Z,4.50
2018-10-21T05:23:04.133Z,4.49
2018-10-21T05:24:04.200Z,4.47
2018-10-21T05:25:04.101Z,4.50
2018-10-21T05:26:04.152Z,4.50
2018-10-21T05:27:04.080Z,4.51
2018-10-21T05:28:04.181Z,4.49
2018-10-21T05:29:04.052Z,4.47
2018-10-21T05:30:04.096Z,4.42
2018-10-21T05:31:04.053Z,4.39
2018-10-21T05:32:04.021Z,4.46
2018-10-21T05:33:04.035Z,4.44
2018-10-21T05:34:04.015Z,4.46
2018-10-21T05:35:03.989Z,4.44
2018-10-21T05:36:04.005Z,4.46
2018-10-21T05:37:04.035Z,4.44
2018-10-21T05:38:04.029Z,4.49
2018-10-21T05:39:03.970Z,4.46
2018-10-21T05:40:04.026Z,4.42
2018-10-21T05:41:03.922Z,4.42
2018-10-21T05:42:03.946Z,4.51
2018-10-21T05:43:03.924Z,4.35
2018-10-21T05:44:03.915Z,4.43
2018-10-21T05:45:03.878Z,4.34
2018-10-21T05:46:03.925Z,4.36
2018-10-21T05:47:03.905Z,4.38
2018-10-21T05:48:03.855Z,4.42
2018-10-21T05:49:03.842Z,4.43
2018-10-21T05:50:03.838Z,4.49
2018-10-21T05:51:03.826Z,4.38
2018-10-21T05:52:03.921Z,4.36
2018-10-21T05:53:03.816Z,4.44
2018-10-21T05:54:03.798Z,4.38
2018-10-21T05:55:03.772Z,4.39
2018-10-21T05:56:03.778Z,4.43
2018-10-21T05:57:03.768Z,4.38
2018-10-21T05:58:03.873Z,4.43
2018-10-21T05:59:03.814Z,4.42
2018-10-21T06:00:03.767Z,4.49
2018-10-21T06:01:03.711Z,4.42
2018-10-21T06:02:03.714Z,4.38
2018-10-21T06:03:03.750Z,4.46
2018-10-21T06:04:03.735Z,4.38
2018-10-21T06:05:03.664Z,4.43
2018-10-21T06:06:03.711Z,4.36
2018-10-21T06:07:03.711Z,4.44
2018-10-21T06:08:03.655Z,4.49
2018-10-21T06:09:03.656Z,4.49
2018-10-21T06:10:03.668Z,4.36
2018-10-21T06:11:03.597Z,4.46
2018-10-21T06:12:03.617Z,4.49
2018-10-21T06:13:03.617Z,4.42
2018-10-21T06:14:03.567Z,4.38
2018-10-21T06:15:03.561Z,4.44
2018-10-21T06:16:03.581Z,4.46
2018-10-21T06:17:03.544Z,4.50
2018-10-21T06:18:03.538Z,4.36
2018-10-21T06:19:03.559Z,4.49
2018-10-21T06:20:03.504Z,4.50
2018-10-21T06:21:03.493Z,4.49
2018-10-21T06:22:03.504Z,4.47
2018-10-21T06:23:03.524Z,4.49
2018-10-21T06:24:03.477Z,4.47
2018-10-21T06:25:03.447Z,4.62
2018-10-21T06:26:03.454Z,4.43
2018-10-21T06:27:03.455Z,4.46
2018-10-21T06:28:03.418Z,4.53
2018-10-21T06:29:03.427Z,4.44
2018-10-21T06:30:03.396Z,4.49
2018-10-21T06:31:03.393Z,4.49
2018-10-21T06:32:03.434Z,4.53
2018-10-21T06:33:03.377Z,4.54
2018-10-21T06:34:03.378Z,4.61
2018-10-21T06:35:03.341Z,4.59
2018-10-21T06:36:03.327Z,4.62
2018-10-21T06:37:03.319Z,4.62
2018-10-21T06:38:03.337Z,4.68
2018-10-21T06:39:03.395Z,4.64
2018-10-21T06:40:03.300Z,4.67
2018-10-21T06:41:03.334Z,4.65
2018-10-21T06:42:03.266Z,4.69
2018-10-21T06:43:03.251Z,4.62
2018-10-21T06:44:03.244Z,4.69
2018-10-21T06:45:03.333Z,4.65
2018-10-21T06:46:03.237Z,4.69
2018-10-21T06:47:03.225Z,4.71
2018-10-21T06:48:03.207Z,4.72
2018-10-21T06:49:03.186Z,4.74
2018-10-21T06:50:03.178Z,4.79
2018-10-21T06:51:03.299Z,4.77
2018-10-21T06:52:03.155Z,4.84
2018-10-21T06:53:03.150Z,4.88
2018-10-21T06:54:03.172Z,4.90
2018-10-21T06:55:03.143Z,4.80
2018-10-21T06:56:03.155Z,4.91
2018-10-21T06:57:03.258Z,4.84
2018-10-21T06:58:03.091Z,4.86
2018-10-21T06:59:03.107Z,4.77
2018-10-21T07:00:03.088Z,4.84
2018-10-21T07:01:03.090Z,4.88
2018-10-21T07:02:03.047Z,4.91
2018-10-21T07:03:03.056Z,4.91
2018-10-21T07:04:03.064Z,4.90
2018-10-21T07:05:03.102Z,4.94
2018-10-21T07:06:03.278Z,4.94
2018-10-21T07:07:03.110Z,4.90
2018-10-21T07:08:02.986Z,5.01
2018-10-21T07:09:03.825Z,4.93
2018-10-21T07:10:03.008Z,5.01
2018-10-21T07:11:02.965Z,5.05
2018-10-21T07:12:02.989Z,4.97
2018-10-21T07:13:02.971Z,5.09
2018-10-21T07:14:02.931Z,5.09
2018-10-21T07:15:02.937Z,5.09
2018-10-21T07:16:03.066Z,5.15
2018-10-21T07:17:03.241Z,5.09
2018-10-21T07:18:02.892Z,5.08
2018-10-21T07:19:02.884Z,5.12
2018-10-21T07:20:02.887Z,5.19
2018-10-21T07:21:02.890Z,5.05
2018-10-21T07:22:02.937Z,5.12
2018-10-21T07:23:03.124Z,5.23
2018-10-21T07:24:02.833Z,5.24
2018-10-21T07:25:02.819Z,5.24
2018-10-21T07:26:02.819Z,5.20
2018-10-21T07:27:02.783Z,5.26
2018-10-21T07:28:02.866Z,5.22
2018-10-21T07:29:02.792Z,5.17
2018-10-21T07:30:02.769Z,5.22
2018-10-21T07:31:02.924Z,5.24
2018-10-21T07:32:02.739Z,5.19
2018-10-21T07:33:02.779Z,5.26
2018-10-21T07:34:02.904Z,5.32
2018-10-21T07:35:02.762Z,5.37
2018-10-21T07:36:02.685Z,5.45
2018-10-21T07:37:02.701Z,5.51
2018-10-21T07:38:02.926Z,5.58
2018-10-21T07:39:02.703Z,5.62
2018-10-21T07:40:02.669Z,5.52
2018-10-21T07:41:02.653Z,5.67
2018-10-21T07:42:02.621Z,5.67
2018-10-21T07:43:02.660Z,5.66
2018-10-21T07:44:02.632Z,5.67
2018-10-21T07:45:02.608Z,5.74
2018-10-21T07:46:02.625Z,5.73
2018-10-21T07:47:02.572Z,5.84
2018-10-21T07:48:02.926Z,5.83
2018-10-21T07:49:02.659Z,5.74
2018-10-21T07:50:02.771Z,5.70
2018-10-21T07:51:02.556Z,5.80
2018-10-21T07:52:02.663Z,5.73
2018-10-21T07:53:02.550Z,5.74
2018-10-21T07:54:02.538Z,5.74
2018-10-21T07:55:02.577Z,5.74
2018-10-21T07:56:02.472Z,5.70
2018-10-21T07:57:02.474Z,5.77
2018-10-21T07:58:02.478Z,5.83
2018-10-21T07:59:02.470Z,5.85
2018-10-21T08:00:02.511Z,5.93
2018-10-21T08:01:02.731Z,5.99
2018-10-21T08:02:02.452Z,5.96
2018-10-21T08:03:02.404Z,5.96
2018-10-21T08:04:02.426Z,6.01
2018-10-21T08:05:02.485Z,6.02
2018-10-21T08:06:02.400Z,6.03
2018-10-21T08:07:02.398Z,6.16
2018-10-21T08:08:02.341Z,6.21
2018-10-21T08:09:02.383Z,6.19
2018-10-21T08:10:02.497Z,6.28
2018-10-21T08:11:02.307Z,6.40
2018-10-21T08:12:02.314Z,6.32
2018-10-21T08:13:02.285Z,6.45
2018-10-21T08:14:02.300Z,6.51
2018-10-21T08:15:02.432Z,6.39
2018-10-21T08:16:02.343Z,6.45
2018-10-21T08:17:02.278Z,6.50
2018-10-21T08:18:02.360Z,6.39
2018-10-21T08:19:02.389Z,6.53
2018-10-21T08:20:02.282Z,6.42
2018-10-21T08:21:02.322Z,6.50
2018-10-21T08:22:02.262Z,6.55
2018-10-21T08:23:02.187Z,6.42
2018-10-21T08:24:02.196Z,6.46
2018-10-21T08:25:02.161Z,6.51
2018-10-21T08:26:02.208Z,6.51
2018-10-21T08:27:02.210Z,6.61
2018-10-21T08:28:02.181Z,6.63
2018-10-21T08:29:02.177Z,6.60
2018-10-21T08:30:02.099Z,6.68
2018-10-21T08:31:02.123Z,6.61
2018-10-21T08:32:02.131Z,6.68
2018-10-21T08:33:02.072Z,6.64
2018-10-21T08:34:02.155Z,6.73
2018-10-21T08:35:02.045Z,6.68
2018-10-21T08:36:02.140Z,6.65
2018-10-21T08:37:02.042Z,6.79
2018-10-21T08:38:02.080Z,6.76
2018-10-21T08:39:02.019Z,6.81
2018-10-21T08:40:02.064Z,6.78
2018-10-21T08:41:02.004Z,6.86
2018-10-21T08:42:02.073Z,6.79
2018-10-21T08:43:01.982Z,6.90
2018-10-21T08:44:02.076Z,6.82
2018-10-21T08:45:02.010Z,6.87
2018-10-21T08:46:01.969Z,6.91
2018-10-21T08:47:01.991Z,6.89
2018-10-21T08:48:01.937Z,6.94
2018-10-21T08:49:02.065Z,6.93
2018-10-21T08:50:02.495Z,6.96
2018-10-21T08:51:01.903Z,7.04
2018-10-21T08:52:01.945Z,6.94
2018-10-21T08:53:01.849Z,6.93
2018-10-21T08:54:01.897Z,7.05
2018-10-21T08:55:01.900Z,7.07
2018-10-21T08:56:01.978Z,7.09
2018-10-21T08:57:01.886Z,7.15
2018-10-21T08:58:01.855Z,7.15
2018-10-21T08:59:01.795Z,7.26
2018-10-21T09:00:01.922Z,7.14
2018-10-21T09:01:01.792Z,7.14
2018-10-21T09:02:01.866Z,7.21
2018-10-21T09:03:01.898Z,7.29
2018-10-21T09:04:01.796Z,7.27
2018-10-21T09:05:01.720Z,7.29
2018-10-21T09:06:01.700Z,7.34
2018-10-21T09:07:01.726Z,7.36
2018-10-21T09:08:01.702Z,7.41
2018-10-21T09:09:01.680Z,7.50
2018-10-21T09:10:01.765Z,7.54
2018-10-21T09:11:01.699Z,7.51
2018-10-21T09:12:01.664Z,7.54
2018-10-21T09:13:01.693Z,7.57
2018-10-21T09:14:01.671Z,7.70
2018-10-21T09:15:01.659Z,7.76
2018-10-21T09:16:01.650Z,7.62
2018-10-21T09:17:01.633Z,7.76
2018-10-21T09:18:01.577Z,7.74
2018-10-21T09:19:01.697Z,7.74
2018-10-21T09:20:01.565Z,7.69
2018-10-21T09:21:01.541Z,7.89
2018-10-21T09:22:01.655Z,7.81
2018-10-21T09:23:01.605Z,7.84
2018-10-21T09:24:01.531Z,7.79
2018-10-21T09:25:01.548Z,7.91
2018-10-21T09:26:01.527Z,7.96
2018-10-21T09:27:01.626Z,8.04
2018-10-21T09:28:01.471Z,8.02
2018-10-21T09:29:01.478Z,8.00
2018-10-21T09:30:01.464Z,8.02
2018-10-21T09:31:01.476Z,8.14
2018-10-21T09:32:01.521Z,8.13
2018-10-21T09:33:01.425Z,8.09
2018-10-21T09:34:01.456Z,8.24
2018-10-21T09:35:01.404Z,8.29
2018-10-21T09:36:01.378Z,8.34
2018-10-21T09:37:01.460Z,8.39
2018-10-21T09:38:01.471Z,8.55
2018-10-21T09:39:01.369Z,8.63
2018-10-21T09:40:01.436Z,8.67
2018-10-21T09:41:01.315Z,8.75
2018-10-21T09:42:01.457Z,8.57
2018-10-21T09:43:01.317Z,8.61
2018-10-21T09:44:01.283Z,8.73
2018-10-21T09:45:01.281Z,8.65
2018-10-21T09:46:01.282Z,8.68
2018-10-21T09:47:01.267Z,8.76
2018-10-21T09:48:01.300Z,8.75
2018-10-21T09:49:01.261Z,8.75
2018-10-21T09:50:01.303Z,8.75
2018-10-21T09:51:01.216Z,8.67
2018-10-21T09:52:01.272Z,8.73
2018-10-21T09:53:01.239Z,8.86
2018-10-21T09:54:01.241Z,8.76
2018-10-21T09:55:01.254Z,8.83
2018-10-21T09:56:01.176Z,8.89
2018-10-21T09:57:01.159Z,8.91
2018-10-21T09:58:01.195Z,8.98
2018-10-21T09:59:01.148Z,9.01
2018-10-21T10:00:01.165Z,9.06
2018-10-21T10:01:01.166Z,9.15
2018-10-21T10:02:01.100Z,9.22
2018-10-21T10:03:01.079Z,9.24
2018-10-21T10:04:01.208Z,9.23
2018-10-21T10:05:01.126Z,9.31
2018-10-21T10:06:01.058Z,9.31
2018-10-21T10:07:01.178Z,9.35
2018-10-21T10:08:01.043Z,9.37
2018-10-21T10:09:01.094Z,9.50
2018-10-21T10:10:01.056Z,9.52
2018-10-21T10:11:01.039Z,9.53
2018-10-21T10:12:00.986Z,9.56
2018-10-21T10:13:00.982Z,9.59
2018-10-21T10:14:00.967Z,9.65
2018-10-21T10:15:01.119Z,9.73
2018-10-21T10:16:01.032Z,9.78
2018-10-21T10:17:01.268Z,9.78
2018-10-21T10:18:00.936Z,9.81
2018-10-21T10:19:00.982Z,9.88
2018-10-21T10:20:00.965Z,9.98
2018-10-21T10:21:00.898Z,9.99
2018-10-21T10:22:00.934Z,10.11
2018-10-21T10:23:00.860Z,10.24
2018-10-21T10:24:00.975Z,10.42
2018-10-21T10:25:00.856Z,10.52
2018-10-21T10:26:00.852Z,10.65
2018-10-21T10:27:01.370Z,10.73
2018-10-21T10:28:00.828Z,10.80
2018-10-21T10:29:00.798Z,10.90
2018-10-21T10:30:00.846Z,10.95
2018-10-21T10:31:00.850Z,11.01
2018-10-21T10:32:00.771Z,11.02
2018-10-21T10:33:00.767Z,11.09
2018-10-21T10:34:00.791Z,11.17
2018-10-21T10:35:00.749Z,11.20
2018-10-21T10:36:00.751Z,11.27
2018-10-21T10:37:00.755Z,11.30
2018-10-21T10:38:00.724Z,11.48
2018-10-21T10:39:00.690Z,11.53
2018-10-21T10:40:00.707Z,11.57
2018-10-21T10:41:00.736Z,11.57
2018-10-21T10:42:00.842Z,11.54
2018-10-21T10:43:00.653Z,11.51
2018-10-21T10:44:00.662Z,11.44
2018-10-21T10:45:00.675Z,11.44
2018-10-21T10:46:00.674Z,11.63
2018-10-21T10:47:00.650Z,11.72
2018-10-21T10:48:00.598Z,11.72
2018-10-21T10:49:00.742Z,11.70
2018-10-21T10:50:00.567Z,11.72
2018-10-21T10:51:00.557Z,11.79
2018-10-21T10:52:00.586Z,11.87
2018-10-21T10:53:00.590Z,12.00
2018-10-21T10:54:00.542Z,12.04
2018-10-21T10:55:00.571Z,12.00
2018-10-21T10:56:00.547Z,11.98
2018-10-21T10:57:00.513Z,11.94
2018-10-21T10:58:00.529Z,11.88
2018-10-21T10:59:00.483Z,11.96
2018-10-21T11:00:00.678Z,11.93
2018-10-21T11:01:00.510Z,11.90
2018-10-21T11:02:00.514Z,11.88
2018-10-21T11:03:00.436Z,11.82
2018-10-21T11:04:00.498Z,11.94
2018-10-21T11:05:00.460Z,12.05
2018-10-21T11:06:00.397Z,12.21
2018-10-21T11:07:00.434Z,12.29
2018-10-21T11:08:00.413Z,12.23
2018-10-21T11:09:00.390Z,12.21
2018-10-21T11:10:00.412Z,12.23
2018-10-21T11:11:00.388Z,12.26
2018-10-21T11:12:00.329Z,12.26
2018-10-21T11:13:00.379Z,12.33
2018-10-21T11:14:00.358Z,12.26
2018-10-21T11:15:00.318Z,12.36
2018-10-21T11:16:00.301Z,12.37
2018-10-21T11:17:00.289Z,12.43
2018-10-21T11:18:00.282Z,12.49
2018-10-21T11:19:00.276Z,12.51
2018-10-21T11:20:00.287Z,12.55
2018-10-21T11:21:00.281Z,12.61
2018-10-21T11:22:00.351Z,12.61
2018-10-21T11:23:00.395Z,12.66
2018-10-21T11:24:00.204Z,12.74
2018-10-21T11:25:00.318Z,12.73
2018-10-21T11:26:00.255Z,12.76
2018-10-21T11:27:00.173Z,12.80
2018-10-21T11:28:00.168Z,12.81
2018-10-21T11:29:00.151Z,12.95
2018-10-21T11:30:00.135Z,12.85
2018-10-21T11:31:00.232Z,12.88
2018-10-21T11:32:00.129Z,12.94
2018-10-21T11:33:00.205Z,12.95
2018-10-21T11:34:00.154Z,12.99
2018-10-21T11:35:00.108Z,13.19
2018-10-21T11:36:00.142Z,13.22
2018-10-21T11:37:00.090Z,13.39
2018-10-21T11:38:00.053Z,13.32
2018-10-21T11:39:00.048Z,13.43
2018-10-21T11:40:00.059Z,13.63
2018-10-21T11:41:00.069Z,13.79
2018-10-21T11:42:00.155Z,13.86
2018-10-21T11:42:59.995Z,13.87
2018-10-21T11:43:59.991Z,13.94
2018-10-21T11:44:59.993Z,13.91
2018-10-21T11:46:00.074Z,13.84
2018-10-21T11:47:00.009Z,13.81
2018-10-21T11:47:59.953Z,13.86
2018-10-21T11:48:59.969Z,13.90
2018-10-21T11:49:59.919Z,13.87
2018-10-21T11:50:59.923Z,13.99
2018-10-21T11:51:59.921Z,13.93
2018-10-21T11:52:59.994Z,14.08
2018-10-21T11:53:59.893Z,14.05
2018-10-21T11:54:59.915Z,14.01
2018-10-21T11:55:59.854Z,14.04
2018-10-21T11:56:59.837Z,14.01
2018-10-21T11:57:59.882Z,14.17
2018-10-21T11:58:59.869Z,14.30
2018-10-21T11:59:59.811Z,14.48
2018-10-21T12:00:59.824Z,14.60
2018-10-21T12:01:59.796Z,14.74
2018-10-21T12:02:59.788Z,14.75
2018-10-21T12:03:59.953Z,14.69
2018-10-21T12:04:59.748Z,14.75
2018-10-21T12:05:59.767Z,14.75
2018-10-21T12:06:59.747Z,14.69
2018-10-21T12:07:59.731Z,14.72
2018-10-21T12:08:59.756Z,14.85
2018-10-21T12:09:59.720Z,14.79
2018-10-21T12:10:59.698Z,14.80
2018-10-21T12:11:59.686Z,14.82
2018-10-21T12:12:59.691Z,14.79
2018-10-21T12:13:59.748Z,14.82
2018-10-21T12:14:59.645Z,14.83
2018-10-21T12:15:59.711Z,14.80
2018-10-21T12:16:59.689Z,14.93
2018-10-21T12:17:59.610Z,15.09
2018-10-21T12:18:59.608Z,15.16
2018-10-21T12:19:59.691Z,15.33
2018-10-21T12:20:59.613Z,15.44
2018-10-21T12:21:59.569Z,15.37
2018-10-21T12:22:59.714Z,15.44
2018-10-21T12:23:59.793Z,15.55
2018-10-21T12:24:59.632Z,15.51
2018-10-21T12:25:59.523Z,15.51
2018-10-21T12:26:59.526Z,15.59
2018-10-21T12:27:59.580Z,15.58
2018-10-21T12:28:59.661Z,15.62
2018-10-21T12:29:59.481Z,15.64
2018-10-21T12:30:59.609Z,15.80
2018-10-21T12:31:59.517Z,15.80
2018-10-21T12:32:59.461Z,15.85
2018-10-21T12:33:59.501Z,15.98
2018-10-21T12:34:59.464Z,15.96
2018-10-21T12:35:59.472Z,16.22
2018-10-21T12:36:59.503Z,16.42
2018-10-21T12:37:59.393Z,17.05
2018-10-21T12:38:59.397Z,17.77
2018-10-21T12:39:59.437Z,18.21
2018-10-21T12:40:59.464Z,18.59
2018-10-21T12:41:59.364Z,19.09
2018-10-21T12:42:59.393Z,19.12
2018-10-21T12:43:59.341Z,19.47
2018-10-21T12:44:59.316Z,19.61
2018-10-21T12:45:59.372Z,19.64
2018-10-21T12:46:59.384Z,19.67
2018-10-21T12:47:59.288Z,19.62
2018-10-21T12:48:59.429Z,19.60
2018-10-21T12:49:59.262Z,19.67
2018-10-21T12:50:59.272Z,19.52
2018-10-21T12:51:59.369Z,19.52
2018-10-21T12:52:59.255Z,19.68
2018-10-21T12:53:59.235Z,19.79
2018-10-21T12:54:59.254Z,19.94
2018-10-21T12:55:59.196Z,20.12
2018-10-21T12:56:59.304Z,20.37
2018-10-21T12:57:59.198Z,20.34
2018-10-21T12:58:59.213Z,20.42
2018-10-21T12:59:59.156Z,20.46
2018-10-21T13:00:59.288Z,20.34
2018-10-21T13:01:59.156Z,20.46
2018-10-21T13:02:59.192Z,20.27
2018-10-21T13:03:59.112Z,20.15
2018-10-21T13:04:59.128Z,19.89
2018-10-21T13:05:59.087Z,19.71
2018-10-21T13:06:59.169Z,19.65
2018-10-21T13:07:59.258Z,19.57
2018-10-21T13:08:59.068Z,19.60
2018-10-21T13:09:59.132Z,19.62
2018-10-21T13:10:59.057Z,19.70
2018-10-21T13:11:59.058Z,19.62